sensor_id;sensor_type;location;lat;lon;timestamp;temperature;humidity
36856;DHT22;22788;51.434;6.786;2023-10-13T05:42:43;17.80;99.90
36856;DHT22;22788;51.434;6.786;2023-10-13T05:45:09;17.70;99.90
36856;DHT22;22788;51.434;6.786;2023-10-13T09:27:16;18.40;99.90
36856;DHT22;22788;51.434;6.786;2023-10-13T09:29:42;18.30;99.90
36856;DHT22;22788;51.434;6.786;2023-10-13T09:32:08;18.20;99.90
36856;DHT22;22788;51.434;6.786;2023-10-13T09:34:33;18.20;99.90
36856;DHT22;22788;51.434;6.786;2023-10-13T09:36:59;18.20;99.90
36856;DHT22;22788;51.434;6.786;2023-10-13T09:39:27;18.20;99.90
36856;DHT22;22788;51.434;6.786;2023-10-13T09:41:52;18.30;99.90
36856;DHT22;22788;51.434;6.786;2023-10-13T09:44:18;18.30;99.90
36856;DHT22;22788;51.434;6.786;2023-10-13T09:46:44;18.30;99.90
36856;DHT22;22788;51.434;6.786;2023-10-13T09:49:12;18.30;99.90
36856;DHT22;22788;51.434;6.786;2023-10-13T09:51:39;18.30;99.90
36856;DHT22;22788;51.434;6.786;2023-10-13T09:54:09;18.30;99.90
36856;DHT22;22788;51.434;6.786;2023-10-13T09:56:42;18.20;99.90
36856;DHT22;22788;51.434;6.786;2023-10-13T09:59:11;18.30;99.90
36856;DHT22;22788;51.434;6.786;2023-10-13T10:01:42;18.30;99.90
36856;DHT22;22788;51.434;6.786;2023-10-13T10:04:10;18.30;99.90
36856;DHT22;22788;51.434;6.786;2023-10-13T10:06:36;18.40;99.90
36856;DHT22;22788;51.434;6.786;2023-10-13T10:09:06;18.40;99.90
36856;DHT22;22788;51.434;6.786;2023-10-13T10:11:54;18.40;99.90
36856;DHT22;22788;51.434;6.786;2023-10-13T10:14:29;18.40;99.90
36856;DHT22;22788;51.434;6.786;2023-10-13T10:17:05;18.40;99.90
36856;DHT22;22788;51.434;6.786;2023-10-13T10:19:31;18.40;99.90
36856;DHT22;22788;51.434;6.786;2023-10-13T10:22:03;18.40;99.90
36856;DHT22;22788;51.434;6.786;2023-10-13T10:24:28;18.40;99.90
36856;DHT22;22788;51.434;6.786;2023-10-13T10:26:55;18.40;99.90
36856;DHT22;22788;51.434;6.786;2023-10-13T10:29:21;18.50;99.90
36856;DHT22;22788;51.434;6.786;2023-10-13T10:31:47;18.50;99.90
36856;DHT22;22788;51.434;6.786;2023-10-13T10:34:13;18.60;99.90
36856;DHT22;22788;51.434;6.786;2023-10-13T10:36:40;18.60;99.90
36856;DHT22;22788;51.434;6.786;2023-10-13T10:39:06;18.60;99.90
36856;DHT22;22788;51.434;6.786;2023-10-13T10:41:32;18.60;99.90
36856;DHT22;22788;51.434;6.786;2023-10-13T10:43:59;18.60;99.90
36856;DHT22;22788;51.434;6.786;2023-10-13T10:46:26;18.60;99.90
36856;DHT22;22788;51.434;6.786;2023-10-13T10:48:52;18.70;99.90
36856;DHT22;22788;51.434;6.786;2023-10-13T10:51:18;18.60;99.90
36856;DHT22;22788;51.434;6.786;2023-10-13T10:53:44;18.60;99.90
36856;DHT22;22788;51.434;6.786;2023-10-13T10:56:10;18.60;99.90
36856;DHT22;22788;51.434;6.786;2023-10-13T10:58:36;18.60;99.90
36856;DHT22;22788;51.434;6.786;2023-10-13T11:01:06;18.60;99.90
36856;DHT22;22788;51.434;6.786;2023-10-13T11:03:32;18.70;99.90
36856;DHT22;22788;51.434;6.786;2023-10-13T11:05:57;18.60;99.90
36856;DHT22;22788;51.434;6.786;2023-10-13T11:08:24;18.70;99.90
36856;DHT22;22788;51.434;6.786;2023-10-13T11:10:50;18.70;99.90
36856;DHT22;22788;51.434;6.786;2023-10-13T11:13:15;18.70;99.90
36856;DHT22;22788;51.434;6.786;2023-10-13T11:15:42;18.70;99.90
36856;DHT22;22788;51.434;6.786;2023-10-13T11:18:09;18.70;99.90
36856;DHT22;22788;51.434;6.786;2023-10-13T11:20:41;18.70;99.90
36856;DHT22;22788;51.434;6.786;2023-10-13T11:23:11;18.70;99.90
36856;DHT22;22788;51.434;6.786;2023-10-13T11:25:36;18.80;99.90
36856;DHT22;22788;51.434;6.786;2023-10-13T11:28:12;18.80;99.90
36856;DHT22;22788;51.434;6.786;2023-10-13T11:30:38;18.80;99.90
36856;DHT22;22788;51.434;6.786;2023-10-13T11:33:05;18.80;99.90
36856;DHT22;22788;51.434;6.786;2023-10-13T11:35:32;18.80;99.90
36856;DHT22;22788;51.434;6.786;2023-10-13T11:37:57;18.90;99.90
36856;DHT22;22788;51.434;6.786;2023-10-13T11:40:23;19.00;99.90
36856;DHT22;22788;51.434;6.786;2023-10-13T11:42:49;19.00;99.90
36856;DHT22;22788;51.434;6.786;2023-10-13T11:45:14;19.00;99.90
36856;DHT22;22788;51.434;6.786;2023-10-13T11:47:40;19.10;99.90
36856;DHT22;22788;51.434;6.786;2023-10-13T11:50:05;19.00;99.90
36856;DHT22;22788;51.434;6.786;2023-10-13T11:52:32;19.10;99.90
36856;DHT22;22788;51.434;6.786;2023-10-13T11:54:58;19.10;99.90
36856;DHT22;22788;51.434;6.786;2023-10-13T11:57:24;19.10;99.90
36856;DHT22;22788;51.434;6.786;2023-10-13T11:59:49;19.10;99.90
36856;DHT22;22788;51.434;6.786;2023-10-13T12:02:15;19.20;99.90
36856;DHT22;22788;51.434;6.786;2023-10-13T12:04:40;19.10;99.90
36856;DHT22;22788;51.434;6.786;2023-10-13T12:07:06;19.10;99.90
36856;DHT22;22788;51.434;6.786;2023-10-13T12:09:33;19.20;99.90
36856;DHT22;22788;51.434;6.786;2023-10-13T12:11:59;19.10;99.90
36856;DHT22;22788;51.434;6.786;2023-10-13T12:14:25;19.20;99.90
36856;DHT22;22788;51.434;6.786;2023-10-13T12:16:50;19.20;99.90
36856;DHT22;22788;51.434;6.786;2023-10-13T12:19:16;19.20;99.90
36856;DHT22;22788;51.434;6.786;2023-10-13T12:21:42;19.30;99.90
36856;DHT22;22788;51.434;6.786;2023-10-13T12:24:08;19.30;99.90
36856;DHT22;22788;51.434;6.786;2023-10-13T12:26:35;19.20;99.90
36856;DHT22;22788;51.434;6.786;2023-10-13T12:29:01;19.30;99.90
36856;DHT22;22788;51.434;6.786;2023-10-13T12:31:26;19.30;99.90
36856;DHT22;22788;51.434;6.786;2023-10-13T12:33:52;19.30;99.90
36856;DHT22;22788;51.434;6.786;2023-10-13T12:36:17;19.40;99.90
36856;DHT22;22788;51.434;6.786;2023-10-13T12:38:43;19.40;99.90
36856;DHT22;22788;51.434;6.786;2023-10-13T12:41:09;19.40;99.90
36856;DHT22;22788;51.434;6.786;2023-10-13T12:43:36;19.40;99.90
36856;DHT22;22788;51.434;6.786;2023-10-13T12:46:01;19.40;99.90
36856;DHT22;22788;51.434;6.786;2023-10-13T12:48:28;19.40;99.90
36856;DHT22;22788;51.434;6.786;2023-10-13T12:50:54;19.40;99.90
36856;DHT22;22788;51.434;6.786;2023-10-13T12:53:19;19.40;99.90
36856;DHT22;22788;51.434;6.786;2023-10-13T12:55:45;19.50;99.90
36856;DHT22;22788;51.434;6.786;2023-10-13T12:58:10;19.50;99.90
36856;DHT22;22788;51.434;6.786;2023-10-13T13:00:37;19.50;99.90
36856;DHT22;22788;51.434;6.786;2023-10-13T13:03:03;19.50;99.90
36856;DHT22;22788;51.434;6.786;2023-10-13T13:05:29;19.50;99.90
36856;DHT22;22788;51.434;6.786;2023-10-13T13:07:55;19.60;99.90
36856;DHT22;22788;51.434;6.786;2023-10-13T13:10:21;19.70;99.90
36856;DHT22;22788;51.434;6.786;2023-10-13T13:12:47;19.60;99.90
36856;DHT22;22788;51.434;6.786;2023-10-13T13:15:12;19.60;99.90
36856;DHT22;22788;51.434;6.786;2023-10-13T13:17:39;19.60;99.90
36856;DHT22;22788;51.434;6.786;2023-10-13T13:20:06;19.60;99.90
36856;DHT22;22788;51.434;6.786;2023-10-13T13:22:31;19.70;99.90
36856;DHT22;22788;51.434;6.786;2023-10-13T13:24:57;19.60;99.90
36856;DHT22;22788;51.434;6.786;2023-10-13T13:27:22;19.60;99.90
36856;DHT22;22788;51.434;6.786;2023-10-13T13:29:48;19.70;99.90
36856;DHT22;22788;51.434;6.786;2023-10-13T13:32:14;19.60;99.90
36856;DHT22;22788;51.434;6.786;2023-10-13T13:34:41;19.70;99.90
36856;DHT22;22788;51.434;6.786;2023-10-13T13:37:07;19.70;99.90
36856;DHT22;22788;51.434;6.786;2023-10-13T13:39:32;19.60;99.90
36856;DHT22;22788;51.434;6.786;2023-10-13T13:41:58;19.60;99.90
36856;DHT22;22788;51.434;6.786;2023-10-13T13:44:24;19.60;99.90
36856;DHT22;22788;51.434;6.786;2023-10-13T13:46:49;19.60;99.90
36856;DHT22;22788;51.434;6.786;2023-10-13T13:49:15;19.70;99.90
36856;DHT22;22788;51.434;6.786;2023-10-13T13:51:42;19.60;99.90
36856;DHT22;22788;51.434;6.786;2023-10-13T13:54:07;19.60;99.90
36856;DHT22;22788;51.434;6.786;2023-10-13T13:56:33;19.60;99.90
36856;DHT22;22788;51.434;6.786;2023-10-13T13:58:59;19.60;99.90
36856;DHT22;22788;51.434;6.786;2023-10-13T14:01:24;19.50;99.90
36856;DHT22;22788;51.434;6.786;2023-10-13T14:03:50;19.60;99.90
36856;DHT22;22788;51.434;6.786;2023-10-13T14:06:17;19.70;99.90
36856;DHT22;22788;51.434;6.786;2023-10-13T14:08:44;19.70;99.90
36856;DHT22;22788;51.434;6.786;2023-10-13T14:11:10;19.70;99.90
36856;DHT22;22788;51.434;6.786;2023-10-13T14:13:35;19.70;99.90
36856;DHT22;22788;51.434;6.786;2023-10-13T14:16:01;19.70;99.90
36856;DHT22;22788;51.434;6.786;2023-10-13T14:18:26;19.70;99.90
36856;DHT22;22788;51.434;6.786;2023-10-13T14:20:52;19.70;99.90
36856;DHT22;22788;51.434;6.786;2023-10-13T14:23:18;19.70;99.90
36856;DHT22;22788;51.434;6.786;2023-10-13T14:25:45;19.70;99.90
36856;DHT22;22788;51.434;6.786;2023-10-13T14:28:10;19.70;99.90
36856;DHT22;22788;51.434;6.786;2023-10-13T14:30:36;19.70;99.90
36856;DHT22;22788;51.434;6.786;2023-10-13T14:33:02;19.70;99.90
36856;DHT22;22788;51.434;6.786;2023-10-13T14:35:28;19.60;99.90
36856;DHT22;22788;51.434;6.786;2023-10-13T14:37:53;19.60;99.90
36856;DHT22;22788;51.434;6.786;2023-10-13T14:40:19;19.60;99.90
36856;DHT22;22788;51.434;6.786;2023-10-13T14:42:46;19.70;99.90
36856;DHT22;22788;51.434;6.786;2023-10-13T14:45:12;19.60;99.90
36856;DHT22;22788;51.434;6.786;2023-10-13T14:47:37;19.70;99.90
36856;DHT22;22788;51.434;6.786;2023-10-13T14:50:04;19.70;99.90
36856;DHT22;22788;51.434;6.786;2023-10-13T14:52:29;19.70;99.90
36856;DHT22;22788;51.434;6.786;2023-10-13T14:54:55;19.70;99.90
36856;DHT22;22788;51.434;6.786;2023-10-13T14:57:21;19.60;99.90
36856;DHT22;22788;51.434;6.786;2023-10-13T14:59:48;19.60;99.90
36856;DHT22;22788;51.434;6.786;2023-10-13T15:02:14;19.60;99.90
36856;DHT22;22788;51.434;6.786;2023-10-13T15:04:39;19.60;99.90
36856;DHT22;22788;51.434;6.786;2023-10-13T15:07:05;19.60;99.90
36856;DHT22;22788;51.434;6.786;2023-10-13T15:09:30;19.60;99.90
36856;DHT22;22788;51.434;6.786;2023-10-13T15:11:56;19.60;99.90
36856;DHT22;22788;51.434;6.786;2023-10-13T15:14:21;19.60;99.90
36856;DHT22;22788;51.434;6.786;2023-10-13T15:16:49;19.60;99.90
36856;DHT22;22788;51.434;6.786;2023-10-13T15:19:14;19.60;99.90
36856;DHT22;22788;51.434;6.786;2023-10-13T15:21:40;19.50;99.90
36856;DHT22;22788;51.434;6.786;2023-10-13T15:24:07;19.60;99.90
36856;DHT22;22788;51.434;6.786;2023-10-13T15:26:33;19.60;99.90
36856;DHT22;22788;51.434;6.786;2023-10-13T15:28:58;19.70;99.90
36856;DHT22;22788;51.434;6.786;2023-10-13T15:31:24;19.70;99.90
36856;DHT22;22788;51.434;6.786;2023-10-13T15:33:52;19.60;99.90
36856;DHT22;22788;51.434;6.786;2023-10-13T15:36:19;19.60;99.90
36856;DHT22;22788;51.434;6.786;2023-10-13T15:38:44;19.60;99.90
36856;DHT22;22788;51.434;6.786;2023-10-13T15:41:10;19.60;99.90
36856;DHT22;22788;51.434;6.786;2023-10-13T15:43:36;19.60;99.90
36856;DHT22;22788;51.434;6.786;2023-10-13T15:46:01;19.60;99.90
36856;DHT22;22788;51.434;6.786;2023-10-13T15:48:27;19.50;99.90
36856;DHT22;22788;51.434;6.786;2023-10-13T15:50:54;19.50;99.90
36856;DHT22;22788;51.434;6.786;2023-10-13T15:53:19;19.50;99.90
36856;DHT22;22788;51.434;6.786;2023-10-13T15:55:45;19.50;99.90
36856;DHT22;22788;51.434;6.786;2023-10-13T15:58:10;19.50;99.90
36856;DHT22;22788;51.434;6.786;2023-10-13T16:00:36;19.60;99.90
36856;DHT22;22788;51.434;6.786;2023-10-13T16:03:02;19.60;99.90
36856;DHT22;22788;51.434;6.786;2023-10-13T16:05:29;19.60;99.90
36856;DHT22;22788;51.434;6.786;2023-10-13T16:11:26;19.50;99.90
36856;DHT22;22788;51.434;6.786;2023-10-13T16:13:53;19.60;99.90
36856;DHT22;22788;51.434;6.786;2023-10-13T16:16:21;19.60;99.90
36856;DHT22;22788;51.434;6.786;2023-10-13T16:18:47;19.50;99.90
36856;DHT22;22788;51.434;6.786;2023-10-13T16:21:12;19.50;99.90
36856;DHT22;22788;51.434;6.786;2023-10-13T16:23:39;19.50;99.90
36856;DHT22;22788;51.434;6.786;2023-10-13T16:26:05;19.60;99.90
36856;DHT22;22788;51.434;6.786;2023-10-13T16:28:31;19.60;99.90
36856;DHT22;22788;51.434;6.786;2023-10-13T16:30:56;19.50;99.90
36856;DHT22;22788;51.434;6.786;2023-10-13T16:33:22;19.50;99.90
36856;DHT22;22788;51.434;6.786;2023-10-13T16:35:48;19.50;99.90
36856;DHT22;22788;51.434;6.786;2023-10-13T16:38:14;19.50;99.90
36856;DHT22;22788;51.434;6.786;2023-10-13T16:40:41;19.40;99.90
36856;DHT22;22788;51.434;6.786;2023-10-13T16:43:06;19.40;99.90
36856;DHT22;22788;51.434;6.786;2023-10-13T16:45:35;19.40;99.90
36856;DHT22;22788;51.434;6.786;2023-10-13T16:48:04;19.50;99.90
36856;DHT22;22788;51.434;6.786;2023-10-13T16:50:29;19.40;99.90
36856;DHT22;22788;51.434;6.786;2023-10-13T16:52:55;19.40;99.90
36856;DHT22;22788;51.434;6.786;2023-10-13T16:55:21;19.40;99.90
36856;DHT22;22788;51.434;6.786;2023-10-13T17:11:57;19.40;99.90
36856;DHT22;22788;51.434;6.786;2023-10-13T18:12:27;19.10;99.90
36856;DHT22;22788;51.434;6.786;2023-10-13T18:14:54;19.10;99.90
36856;DHT22;22788;51.434;6.786;2023-10-13T18:17:19;19.10;99.90
36856;DHT22;22788;51.434;6.786;2023-10-13T18:19:45;19.20;99.90
36856;DHT22;22788;51.434;6.786;2023-10-13T18:22:11;19.10;99.90
36856;DHT22;22788;51.434;6.786;2023-10-13T18:24:36;19.10;99.90
36856;DHT22;22788;51.434;6.786;2023-10-13T18:27:02;19.10;99.90
36856;DHT22;22788;51.434;6.786;2023-10-13T18:29:29;19.10;99.90
36856;DHT22;22788;51.434;6.786;2023-10-13T18:31:54;19.10;99.90
36856;DHT22;22788;51.434;6.786;2023-10-13T18:34:20;19.10;99.90
36856;DHT22;22788;51.434;6.786;2023-10-13T18:36:46;19.10;99.90
36856;DHT22;22788;51.434;6.786;2023-10-13T18:39:11;19.00;99.90
36856;DHT22;22788;51.434;6.786;2023-10-13T18:41:37;19.10;99.90
36856;DHT22;22788;51.434;6.786;2023-10-13T18:44:03;19.10;99.90
36856;DHT22;22788;51.434;6.786;2023-10-13T18:46:30;19.10;99.90
36856;DHT22;22788;51.434;6.786;2023-10-13T18:48:55;19.20;99.90
36856;DHT22;22788;51.434;6.786;2023-10-13T18:51:23;19.30;99.90
36856;DHT22;22788;51.434;6.786;2023-10-13T18:53:55;19.10;99.90
36856;DHT22;22788;51.434;6.786;2023-10-13T18:56:23;19.10;99.90
36856;DHT22;22788;51.434;6.786;2023-10-13T18:58:51;19.00;99.90
36856;DHT22;22788;51.434;6.786;2023-10-13T19:01:18;19.20;99.90
36856;DHT22;22788;51.434;6.786;2023-10-13T19:03:46;18.80;99.90
36856;DHT22;22788;51.434;6.786;2023-10-13T19:06:11;19.20;99.90
36856;DHT22;22788;51.434;6.786;2023-10-13T19:08:37;19.10;99.90
36856;DHT22;22788;51.434;6.786;2023-10-13T19:11:03;19.10;99.90
36856;DHT22;22788;51.434;6.786;2023-10-13T19:13:29;18.80;99.90
36856;DHT22;22788;51.434;6.786;2023-10-13T19:15:58;19.00;99.90
36856;DHT22;22788;51.434;6.786;2023-10-13T19:18:24;18.70;99.90
36856;DHT22;22788;51.434;6.786;2023-10-13T19:20:52;19.00;99.90
36856;DHT22;22788;51.434;6.786;2023-10-13T19:23:18;19.00;99.90
36856;DHT22;22788;51.434;6.786;2023-10-13T19:25:43;19.40;99.90
36856;DHT22;22788;51.434;6.786;2023-10-13T19:35:02;19.10;99.90
36856;DHT22;22788;51.434;6.786;2023-10-13T20:18:15;18.80;99.90
36856;DHT22;22788;51.434;6.786;2023-10-13T20:20:56;18.70;99.90
36856;DHT22;22788;51.434;6.786;2023-10-13T21:25:19;18.50;99.90
36856;DHT22;22788;51.434;6.786;2023-10-13T21:27:46;18.70;99.90
36856;DHT22;22788;51.434;6.786;2023-10-13T21:30:18;19.00;99.90
36856;DHT22;22788;51.434;6.786;2023-10-13T21:32:49;18.60;99.90
36856;DHT22;22788;51.434;6.786;2023-10-13T21:35:35;18.60;99.90
36856;DHT22;22788;51.434;6.786;2023-10-13T21:41:22;18.60;99.90
36856;DHT22;22788;51.434;6.786;2023-10-13T21:44:20;19.10;99.90
36856;DHT22;22788;51.434;6.786;2023-10-13T21:46:47;18.10;99.90
36856;DHT22;22788;51.434;6.786;2023-10-13T21:49:13;18.60;99.90
36856;DHT22;22788;51.434;6.786;2023-10-13T21:54:54;18.60;99.90
36856;DHT22;22788;51.434;6.786;2023-10-13T21:57:19;18.60;99.90
36856;DHT22;22788;51.434;6.786;2023-10-13T21:59:45;18.60;99.90
36856;DHT22;22788;51.434;6.786;2023-10-13T22:02:11;18.60;99.90
36856;DHT22;22788;51.434;6.786;2023-10-13T22:04:36;18.60;99.90
36856;DHT22;22788;51.434;6.786;2023-10-13T22:07:03;18.50;99.90
36856;DHT22;22788;51.434;6.786;2023-10-13T22:09:29;18.60;99.90
36856;DHT22;22788;51.434;6.786;2023-10-13T22:11:54;18.60;99.90
36856;DHT22;22788;51.434;6.786;2023-10-13T22:14:20;18.50;99.90
36856;DHT22;22788;51.434;6.786;2023-10-13T22:16:46;18.60;99.90
36856;DHT22;22788;51.434;6.786;2023-10-13T22:19:12;18.50;99.90
36856;DHT22;22788;51.434;6.786;2023-10-13T22:21:37;18.60;99.90
36856;DHT22;22788;51.434;6.786;2023-10-13T22:24:05;18.60;99.90
36856;DHT22;22788;51.434;6.786;2023-10-13T22:26:31;18.60;99.90
36856;DHT22;22788;51.434;6.786;2023-10-13T22:28:57;18.60;99.90
36856;DHT22;22788;51.434;6.786;2023-10-13T22:31:23;18.60;99.90
36856;DHT22;22788;51.434;6.786;2023-10-13T22:33:49;18.60;99.90
36856;DHT22;22788;51.434;6.786;2023-10-13T22:36:15;18.60;99.90
36856;DHT22;22788;51.434;6.786;2023-10-13T22:38:41;18.50;99.90
36856;DHT22;22788;51.434;6.786;2023-10-13T22:41:09;18.60;99.90
36856;DHT22;22788;51.434;6.786;2023-10-13T22:43:35;18.60;99.90
36856;DHT22;22788;51.434;6.786;2023-10-13T22:46:01;18.60;99.90
36856;DHT22;22788;51.434;6.786;2023-10-13T22:48:27;18.60;99.90
36856;DHT22;22788;51.434;6.786;2023-10-13T22:50:53;18.60;99.90
36856;DHT22;22788;51.434;6.786;2023-10-13T22:53:18;18.60;99.90
36856;DHT22;22788;51.434;6.786;2023-10-13T22:55:52;18.50;99.90
36856;DHT22;22788;51.434;6.786;2023-10-13T23:32:30;18.60;99.90
36856;DHT22;22788;51.434;6.786;2023-10-13T23:35:28;18.60;99.90
36856;DHT22;22788;51.434;6.786;2023-10-13T23:38:18;18.40;99.90
36856;DHT22;22788;51.434;6.786;2023-10-13T23:41:08;18.60;99.90
36856;DHT22;22788;51.434;6.786;2023-10-13T23:46:51;18.60;99.90
36856;DHT22;22788;51.434;6.786;2023-10-13T23:50:49;18.70;99.90
36856;DHT22;22788;51.434;6.786;2023-10-13T23:53:56;18.60;99.90
36856;DHT22;22788;51.434;6.786;2023-10-13T23:56:10;18.60;99.90
36856;DHT22;22788;51.434;6.786;2023-10-13T23:59:29;19.10;99.90
